Time;durP1;ratioP1;P1;durP2;ratioP2;P2;SDS_P1;SDS_P2;PMS_P1;PMS_P2;Temp;Humidity;BMP_temperature;BMP_pressure;BME280_temperature;BME280_humidity;BME280_pressure;Samples;Min_cycle;Max_cycle;Signal;HPM_P1;HPM_P2
2023/03/14 00:02:18;;;;;;;10.45;5.40;;;;;;;11.57;82.86;98847.94;5030532;28;20029;-56
2023/03/14 00:04:43;;;;;;;8.90;5.13;;;;;;;11.46;79.46;98854.31;5028742;28;20025;-56
2023/03/14 00:07:11;;;;;;;8.43;4.55;;;;;;;11.41;78.03;98856.59;5031949;28;20022;-56
2023/03/14 00:09:36;;;;;;;11.07;4.55;;;;;;;11.48;76.70;98855.03;5029248;28;20421;-56
2023/03/14 00:12:02;;;;;;;10.00;4.95;;;;;;;11.37;76.67;98850.75;5030868;28;20060;-56
2023/03/14 00:14:28;;;;;;;10.25;4.90;;;;;;;11.33;77.01;98846.72;5028554;28;20021;-56
2023/03/14 00:16:56;;;;;;;9.73;4.53;;;;;;;11.30;76.27;98851.53;5032990;28;20030;-56
2023/03/14 00:19:22;;;;;;;8.85;4.97;;;;;;;11.26;76.24;98858.09;5032168;28;20137;-56
2023/03/14 00:21:49;;;;;;;10.68;5.22;;;;;;;11.22;75.21;98870.06;5031603;28;20112;-56
2023/03/14 00:24:15;;;;;;;10.80;4.95;;;;;;;11.29;74.02;98868.44;5032483;28;20048;-56
2023/03/14 00:26:40;;;;;;;9.70;5.07;;;;;;;11.17;74.88;98867.00;5028104;28;20473;-56
2023/03/14 00:29:10;;;;;;;10.50;4.85;;;;;;;11.07;75.18;98856.41;5031431;28;20052;-56
2023/03/14 00:31:36;;;;;;;11.55;5.55;;;;;;;11.08;75.92;98882.84;5030530;28;20025;-56
2023/03/14 00:34:02;;;;;;;12.10;5.55;;;;;;;11.08;75.60;98877.53;5031038;28;20017;-56
2023/03/14 00:36:27;;;;;;;9.15;5.75;;;;;;;11.06;75.73;98878.66;5032400;28;20052;-56
2023/03/14 00:38:53;;;;;;;12.32;5.72;;;;;;;11.06;75.29;98881.31;5033102;28;20381;-56
2023/03/14 00:41:24;;;;;;;10.63;5.97;;;;;;;11.04;76.07;98878.00;5031984;28;20033;-56
2023/03/14 00:43:51;;;;;;;11.48;5.28;;;;;;;11.02;75.75;98875.47;5032532;28;20014;-56
2023/03/14 00:46:17;;;;;;;7.90;5.35;;;;;;;11.00;76.49;98884.59;5031930;28;20041;-56
2023/03/14 00:48:45;;;;;;;11.65;5.13;;;;;;;10.99;75.25;98878.44;5029321;28;20158;-56
2023/03/14 00:51:13;;;;;;;10.32;5.30;;;;;;;11.11;74.01;98887.88;5031742;28;20472;-56
2023/03/14 00:53:40;;;;;;;8.20;4.85;;;;;;;11.08;75.42;98884.69;5030558;28;20029;-56
2023/03/14 00:56:08;;;;;;;9.73;4.95;;;;;;;11.06;75.02;98881.31;5029981;28;20395;-56
2023/03/14 00:58:34;;;;;;;11.98;5.25;;;;;;;11.06;75.02;98878.66;5032091;28;20037;-56
2023/03/14 01:01:05;;;;;;;11.23;4.80;;;;;;;11.07;75.83;98867.91;5031585;28;20029;-56
2023/03/14 01:03:31;;;;;;;10.18;5.32;;;;;;;11.04;74.71;98860.22;5031450;28;20082;-56
2023/03/14 01:06:16;;;;;;;11.57;5.72;;;;;;;11.04;74.79;98870.84;5032010;28;20120;-56
2023/03/14 01:08:43;;;;;;;9.45;5.03;;;;;;;11.07;73.75;98869.72;5032083;28;20025;-56
2023/03/14 01:11:10;;;;;;;10.55;5.40;;;;;;;11.03;74.70;98874.50;5037801;28;20034;-56
2023/03/14 01:13:36;;;;;;;9.25;5.13;;;;;;;11.05;73.97;98882.31;5034777;28;20022;-56
2023/03/14 01:16:07;;;;;;;10.75;5.30;;;;;;;11.05;73.96;98871.69;5029907;28;20049;-56
2023/03/14 01:18:34;;;;;;;10.85;5.28;;;;;;;10.98;74.45;98854.66;5030679;28;20029;-56
2023/03/14 01:21:01;;;;;;;11.50;5.03;;;;;;;11.04;74.16;98864.69;5031732;28;20079;-56
2023/03/14 01:23:26;;;;;;;8.73;4.80;;;;;;;10.99;73.97;98856.31;5029445;28;20033;-56
2023/03/14 01:25:51;;;;;;;9.95;4.97;;;;;;;11.05;74.08;98869.84;5031770;28;20025;-56
2023/03/14 01:28:19;;;;;;;10.52;4.82;;;;;;;11.02;73.28;98871.97;5030586;28;20029;-56
2023/03/14 01:30:44;;;;;;;7.55;4.95;;;;;;;11.03;74.63;98861.22;5029723;28;20026;-56
2023/03/14 01:33:14;;;;;;;7.63;4.45;;;;;;;10.98;73.11;98855.50;5028822;28;20071;-56
2023/03/14 01:35:39;;;;;;;9.77;5.28;;;;;;;11.00;73.34;98857.97;5030403;28;20033;-56
2023/03/14 01:38:05;;;;;;;9.77;5.35;;;;;;;11.06;72.59;98849.41;5032841;28;20498;-57
2023/03/14 01:40:32;;;;;;;7.40;4.88;;;;;;;10.89;74.01;98837.75;5032599;28;20021;-56
2023/03/14 01:43:06;;;;;;;9.13;4.63;;;;;;;10.88;74.23;98839.59;5037161;28;20052;-56
2023/03/14 01:46:05;;;;;;;10.85;5.35;;;;;;;10.96;74.12;98845.97;5037294;28;20499;-56
2023/03/14 01:49:01;;;;;;;9.00;4.90;;;;;;;10.90;74.58;98842.91;5036952;28;20052;-56
2023/03/14 01:51:41;;;;;;;7.88;4.88;;;;;;;10.94;74.38;98830.16;5033713;28;20365;-56
2023/03/14 01:54:20;;;;;;;10.05;4.82;;;;;;;10.84;75.02;98824.91;5036210;28;20017;-56
2023/03/14 01:57:01;;;;;;;8.20;4.35;;;;;;;10.60;75.15;98779.41;5036190;28;20492;-56
2023/03/14 01:59:30;;;;;;;9.15;4.65;;;;;;;10.85;75.87;98826.59;5036092;28;20050;-57
2023/03/14 02:01:56;;;;;;;9.00;5.13;;;;;;;10.80;76.30;98815.56;5034426;28;20496;-56
2023/03/14 02:04:22;;;;;;;10.32;5.20;;;;;;;10.82;75.70;98818.88;5035091;28;20029;-56
2023/03/14 02:06:52;;;;;;;9.70;5.00;;;;;;;10.79;75.75;98813.88;5037995;28;20061;-56
2023/03/14 02:09:18;;;;;;;11.13;4.97;;;;;;;10.75;76.36;98812.50;5036647;28;20021;-56
2023/03/14 02:11:44;;;;;;;11.75;5.07;;;;;;;10.72;77.01;98810.13;5038065;28;20026;-56
2023/03/14 02:14:19;;;;;;;12.20;5.18;;;;;;;10.77;76.93;98823.00;5036981;28;20476;-56
2023/03/14 02:16:44;;;;;;;13.57;6.05;;;;;;;10.72;77.40;98812.78;5037944;28;20037;-56
2023/03/14 02:19:15;;;;;;;11.85;5.68;;;;;;;10.79;76.62;98816.53;5038015;28;20532;-56
2023/03/14 02:21:59;;;;;;;11.52;5.97;;;;;;;10.83;77.28;98814.44;5037938;28;20405;-56
2023/03/14 02:24:42;;;;;;;8.95;5.50;;;;;;;10.86;76.49;98822.94;5037555;28;20077;-56
2023/03/14 02:27:18;;;;;;;13.98;6.35;;;;;;;10.78;77.25;98812.19;5037855;28;20033;-56
2023/03/14 02:29:51;;;;;;;14.32;5.75;;;;;;;10.75;77.56;98807.19;5037153;28;20028;-56
2023/03/14 02:32:18;;;;;;;14.95;6.00;;;;;;;10.74;77.81;98807.34;5036284;28;20033;-56
2023/03/14 02:34:50;;;;;;;13.35;6.05;;;;;;;10.69;78.08;98803.28;5036107;28;20029;-56
2023/03/14 02:37:19;;;;;;;14.15;5.90;;;;;;;10.66;78.02;98792.94;5038830;28;20477;-56
2023/03/14 02:39:45;;;;;;;11.90;5.93;;;;;;;10.67;78.08;98785.81;5037581;28;20052;-56
2023/03/14 02:42:12;;;;;;;13.20;5.28;;;;;;;10.61;78.71;98797.03;5037676;28;20029;-56
2023/03/14 02:45:07;;;;;;;14.38;5.88;;;;;;;10.76;77.74;98790.22;5036756;28;20044;-56
2023/03/14 02:47:37;;;;;;;12.73;5.07;;;;;;;10.59;79.04;98786.56;5018126;28;20128;-56
2023/03/14 02:50:10;;;;;;;16.63;6.13;;;;;;;10.59;78.73;98796.34;5034654;28;20032;-57
2023/03/14 02:52:35;;;;;;;15.70;5.50;;;;;;;10.62;79.05;98788.94;5033179;28;20027;-56
2023/03/14 02:55:02;;;;;;;12.15;5.80;;;;;;;10.59;79.30;98793.69;5032940;28;20099;-57
2023/03/14 02:57:27;;;;;;;11.32;5.55;;;;;;;10.65;78.50;98780.66;5033190;28;20033;-56
2023/03/14 02:59:53;;;;;;;11.65;5.82;;;;;;;10.63;78.66;98797.72;5034051;28;20045;-56
2023/03/14 03:02:18;;;;;;;12.27;5.07;;;;;;;10.62;79.17;98790.75;5033035;28;20487;-56
2023/03/14 03:04:43;;;;;;;11.02;5.40;;;;;;;10.61;78.59;98797.03;5033747;28;20045;-56
2023/03/14 03:07:10;;;;;;;14.02;5.13;;;;;;;10.67;78.04;98794.63;5034413;28;20064;-56
2023/03/14 03:09:35;;;;;;;12.88;5.70;;;;;;;10.66;78.83;98794.78;5034111;28;20021;-56
2023/03/14 03:12:00;;;;;;;10.70;5.55;;;;;;;10.56;78.99;98789.53;5032748;28;20018;-56
2023/03/14 03:14:26;;;;;;;14.18;5.68;;;;;;;10.57;78.96;98801.81;5033191;28;20107;-55
2023/03/14 03:16:53;;;;;;;13.20;6.05;;;;;;;10.64;78.89;98804.72;5034093;28;20492;-56
2023/03/14 03:19:19;;;;;;;11.50;5.05;;;;;;;10.62;79.71;98796.91;5033955;28;20017;-56
2023/03/14 03:21:48;;;;;;;13.95;6.10;;;;;;;10.64;78.95;98791.41;5032646;28;20079;-56
2023/03/14 03:24:15;;;;;;;14.07;4.70;;;;;;;10.59;79.35;98797.19;5027591;28;20028;-56
2023/03/14 03:26:41;;;;;;;14.27;5.93;;;;;;;10.56;79.20;98784.19;5031870;28;20061;-56
2023/03/14 03:29:06;;;;;;;10.43;4.95;;;;;;;10.59;78.72;98785.69;5033868;28;20057;-56
2023/03/14 03:31:32;;;;;;;8.38;4.57;;;;;;;10.56;78.90;98781.53;5033132;28;20056;-57
2023/03/14 03:33:57;;;;;;;9.68;5.07;;;;;;;10.55;78.79;98787.81;5041070;28;20063;-56
2023/03/14 03:36:24;;;;;;;10.75;5.20;;;;;;;10.53;78.83;98791.63;5037164;28;20472;-56
2023/03/14 03:38:50;;;;;;;8.10;4.25;;;;;;;10.63;78.47;98790.59;5047850;28;20457;-56
2023/03/14 03:41:15;;;;;;;7.72;5.07;;;;;;;10.53;78.26;98787.16;5052107;28;20052;-56
2023/03/14 03:43:41;;;;;;;8.73;5.35;;;;;;;10.50;79.23;98783.94;5042538;28;20055;-56
2023/03/14 03:46:07;;;;;;;9.07;4.80;;;;;;;10.46;78.65;98772.75;5052963;28;20027;-56
2023/03/14 03:48:33;;;;;;;12.95;5.50;;;;;;;10.52;78.89;98774.00;5043065;28;20036;-56
2023/03/14 03:50:59;;;;;;;11.27;5.30;;;;;;;10.48;79.03;98773.47;5052150;28;20491;-56
2023/03/14 03:53:27;;;;;;;13.90;5.25;;;;;;;10.48;78.91;98781.44;5034228;28;20029;-56
2023/03/14 03:55:53;;;;;;;8.68;4.93;;;;;;;10.59;78.17;98778.59;5048837;28;20423;-56
2023/03/14 03:58:19;;;;;;;6.95;4.18;;;;;;;10.39;80.28;98764.56;5048839;28;20045;-56
2023/03/14 04:00:44;;;;;;;7.25;4.85;;;;;;;10.45;80.83;98769.28;5050123;28;20032;-56
2023/03/14 04:03:11;;;;;;;11.68;4.82;;;;;;;10.39;81.98;98771.69;5040508;28;20052;-56
2023/03/14 04:05:37;;;;;;;15.23;5.50;;;;;;;10.34;81.55;98764.16;5052992;28;20845;-56
2023/03/14 04:08:04;;;;;;;7.90;5.20;;;;;;;10.27;81.08;98764.91;5051965;28;20499;-56
2023/03/14 04:10:30;;;;;;;10.82;5.35;;;;;;;10.19;80.69;98761.09;5051230;28;20154;-56
2023/03/14 04:12:55;;;;;;;8.25;4.90;;;;;;;10.17;81.05;98767.53;5033141;28;20112;-56
2023/03/14 04:15:20;;;;;;;9.32;4.70;;;;;;;10.21;80.92;98763.63;5048218;28;20036;-56
2023/03/14 04:17:46;;;;;;;7.18;4.78;;;;;;;10.16;80.83;98761.41;5051746;28;20029;-56
2023/03/14 04:20:12;;;;;;;7.80;5.15;;;;;;;10.17;81.33;98754.25;5051119;28;20407;-56
2023/03/14 04:22:38;;;;;;;8.25;4.90;;;;;;;10.13;82.52;98763.50;5050362;28;20021;-56
2023/03/14 04:25:05;;;;;;;10.98;5.32;;;;;;;10.11;83.35;98765.47;5039105;28;20025;-56
2023/03/14 04:27:31;;;;;;;8.05;4.55;;;;;;;10.15;83.39;98757.06;5037688;28;20040;-56
2023/03/14 04:29:56;;;;;;;6.20;5.05;;;;;;;10.16;83.99;98771.19;5049739;28;20033;-56
2023/03/14 04:32:22;;;;;;;8.40;4.88;;;;;;;10.08;84.97;98755.97;5045725;28;20094;-56
2023/03/14 04:34:47;;;;;;;6.03;4.50;;;;;;;10.08;85.76;98753.31;5047011;28;20174;-56
2023/03/14 04:37:12;;;;;;;9.20;5.00;;;;;;;10.08;85.61;98755.13;5051245;28;20024;-56
2023/03/14 04:39:38;;;;;;;7.38;4.55;;;;;;;10.01;86.34;98753.06;5049617;28;20484;-56
2023/03/14 04:42:04;;;;;;;6.18;5.30;;;;;;;9.99;87.08;98756.84;5043378;28;20025;-56
2023/03/14 04:44:29;;;;;;;4.93;4.53;;;;;;;9.98;87.83;98744.56;5042472;28;20361;-56
2023/03/14 04:46:57;;;;;;;6.85;4.85;;;;;;;10.01;88.66;98742.44;5051418;28;20385;-56
2023/03/14 04:49:23;;;;;;;6.78;5.35;;;;;;;9.88;90.83;98744.59;5037980;28;20075;-56
2023/03/14 04:51:50;;;;;;;7.25;4.53;;;;;;;9.85;92.26;98755.47;5031048;28;20388;-56
2023/03/14 04:54:16;;;;;;;5.90;4.95;;;;;;;9.80;92.89;98764.88;5031603;28;20036;-56
2023/03/14 04:56:43;;;;;;;5.38;4.70;;;;;;;9.75;94.03;98767.94;5032266;28;20391;-56
2023/03/14 04:59:09;;;;;;;8.75;5.18;;;;;;;9.65;95.89;98762.66;5031939;28;20455;-56
2023/03/14 05:01:37;;;;;;;5.75;5.13;;;;;;;9.63;96.95;98761.13;5031407;28;20029;-56
2023/03/14 05:04:02;;;;;;;6.90;4.68;;;;;;;9.59;96.96;98763.25;5031946;28;20512;-56
2023/03/14 05:06:28;;;;;;;5.82;4.30;;;;;;;9.54;97.36;98766.31;5030608;28;20168;-56
2023/03/14 05:08:56;;;;;;;9.63;5.75;;;;;;;9.52;98.83;98764.75;5030953;28;20056;-56
2023/03/14 05:11:21;;;;;;;6.30;4.78;;;;;;;9.48;99.51;98761.56;5032010;28;20025;-56
2023/03/14 05:13:49;;;;;;;6.65;5.68;;;;;;;9.41;100.00;98751.66;5030797;28;20353;-57
2023/03/14 05:16:15;;;;;;;6.47;5.18;;;;;;;9.45;100.00;98755.72;5031358;28;20034;-56
2023/03/14 05:18:40;;;;;;;7.47;5.47;;;;;;;9.42;100.00;98756.00;5032124;28;20036;-56
2023/03/14 05:21:06;;;;;;;6.75;4.43;;;;;;;9.38;100.00;98747.44;5030057;28;20031;-56
2023/03/14 05:23:31;;;;;;;6.10;5.50;;;;;;;9.45;100.00;98759.19;5030337;28;20014;-56
2023/03/14 05:25:56;;;;;;;7.07;5.90;;;;;;;9.41;100.00;98757.81;5030584;28;20040;-56
2023/03/14 05:28:24;;;;;;;8.13;5.97;;;;;;;9.43;100.00;98752.34;5030692;28;20495;-56
2023/03/14 05:30:49;;;;;;;8.55;5.93;;;;;;;9.41;100.00;98743.69;5031394;28;20090;-56
2023/03/14 05:33:15;;;;;;;9.00;5.93;;;;;;;9.39;100.00;98732.41;5030168;28;20465;-56
2023/03/14 05:35:41;;;;;;;7.10;6.47;;;;;;;9.40;100.00;98737.53;5030237;28;20133;-56
2023/03/14 05:38:09;;;;;;;7.22;5.63;;;;;;;9.42;100.00;98732.13;5031473;28;20021;-56
2023/03/14 05:40:34;;;;;;;7.70;4.97;;;;;;;9.45;100.00;98737.97;5031320;28;20026;-56
2023/03/14 05:43:00;;;;;;;8.25;5.47;;;;;;;9.32;100.00;98719.69;5029239;28;20033;-56
2023/03/14 05:45:25;;;;;;;6.60;5.38;;;;;;;9.43;100.00;98726.66;5030987;28;20056;-56
2023/03/14 05:47:51;;;;;;;6.72;5.80;;;;;;;9.42;100.00;98732.94;5031689;28;20053;-57
2023/03/14 05:50:16;;;;;;;8.23;6.05;;;;;;;9.39;100.00;98725.28;5016326;28;20037;-56
2023/03/14 05:52:41;;;;;;;8.75;6.07;;;;;;;9.40;100.00;98723.44;5026273;28;20044;-56
2023/03/14 05:55:07;;;;;;;7.88;5.47;;;;;;;9.37;100.00;98734.34;5029815;28;20115;-56
2023/03/14 05:57:32;;;;;;;8.73;6.78;;;;;;;9.36;100.00;98730.03;5032421;28;20079;-56
2023/03/14 05:59:58;;;;;;;7.95;5.82;;;;;;;9.38;100.00;98728.88;5030469;28;20080;-56
2023/03/14 06:02:23;;;;;;;8.00;6.47;;;;;;;9.39;100.00;98725.28;5031136;28;20540;-56
2023/03/14 06:04:49;;;;;;;8.23;6.43;;;;;;;9.40;100.00;98718.16;5041511;28;20033;-56
2023/03/14 06:07:14;;;;;;;8.57;6.85;;;;;;;9.37;100.00;98726.38;5029512;28;20491;-56
2023/03/14 06:09:39;;;;;;;9.30;6.90;;;;;;;9.36;100.00;98722.91;5030206;28;20025;-56
2023/03/14 06:12:05;;;;;;;10.07;7.13;;;;;;;9.33;100.00;98713.41;5029504;28;20444;-56
2023/03/14 06:14:35;;;;;;;9.40;6.65;;;;;;;9.32;100.00;98719.69;5029106;28;20377;-56
2023/03/14 06:17:01;;;;;;;9.02;6.63;;;;;;;9.30;100.00;98721.66;5030052;28;20498;-56
2023/03/14 06:19:29;;;;;;;11.07;8.82;;;;;;;9.32;100.00;98722.34;5031557;28;20025;-56
2023/03/14 06:21:54;;;;;;;9.38;7.32;;;;;;;9.35;100.00;98715.91;5029834;28;20396;-56
2023/03/14 06:24:19;;;;;;;8.18;7.32;;;;;;;9.38;100.00;98722.75;5031570;28;20172;-56
2023/03/14 06:26:45;;;;;;;11.23;8.07;;;;;;;9.42;100.00;98716.19;5033660;28;20384;-56
2023/03/14 06:29:10;;;;;;;10.75;8.20;;;;;;;9.44;100.00;98722.19;5034765;28;20033;-56
2023/03/14 06:31:36;;;;;;;10.57;7.53;;;;;;;9.38;100.00;98723.56;5034111;28;20040;-56
2023/03/14 06:34:01;;;;;;;10.95;7.70;;;;;;;9.40;100.00;98724.28;5034938;28;20029;-56
2023/03/14 06:36:27;;;;;;;8.75;7.63;;;;;;;9.41;100.00;98720.66;5033369;28;20025;-56
2023/03/14 06:38:52;;;;;;;8.32;7.55;;;;;;;9.40;100.00;98732.25;5033738;28;20048;-56
2023/03/14 06:41:18;;;;;;;8.93;8.05;;;;;;;9.44;100.00;98735.44;5033048;28;20404;-57
2023/03/14 06:43:44;;;;;;;10.15;7.88;;;;;;;9.47;100.00;98738.66;5034697;28;20022;-56
2023/03/14 06:46:09;;;;;;;12.13;7.68;;;;;;;9.44;100.00;98730.13;5032754;28;20025;-57
2023/03/14 06:48:34;;;;;;;8.25;7.40;;;;;;;9.46;100.00;98736.97;5034549;28;20439;-57
2023/03/14 06:51:00;;;;;;;10.57;7.53;;;;;;;9.58;100.00;98736.81;5033946;28;20033;-57
2023/03/14 06:53:25;;;;;;;10.18;8.05;;;;;;;9.58;100.00;98739.47;5033338;28;20072;-56
2023/03/14 06:55:51;;;;;;;9.05;8.18;;;;;;;9.63;100.00;98734.59;5032897;28;20104;-56
2023/03/14 06:58:17;;;;;;;9.07;8.18;;;;;;;9.57;100.00;98735.16;5034250;28;20366;-56
2023/03/14 07:00:42;;;;;;;12.20;8.10;;;;;;;9.61;100.00;98740.03;5030808;28;20037;-56
2023/03/14 07:03:11;;;;;;;8.25;7.45;;;;;;;9.57;100.00;98748.44;5047908;28;20028;-56
2023/03/14 07:05:40;;;;;;;10.95;7.80;;;;;;;9.57;100.00;98740.47;5045007;28;20056;-56
2023/03/14 07:08:08;;;;;;;11.43;8.45;;;;;;;9.62;100.00;98760.31;5034258;28;20103;-56
2023/03/14 07:10:33;;;;;;;8.10;7.30;;;;;;;9.59;100.00;98754.41;5032315;28;20025;-56
2023/03/14 07:12:59;;;;;;;8.82;7.97;;;;;;;9.54;100.00;98750.38;5032712;28;20079;-56
2023/03/14 07:15:24;;;;;;;8.70;7.72;;;;;;;9.58;100.00;98763.38;5032247;28;20075;-56
2023/03/14 07:17:50;;;;;;;8.68;7.72;;;;;;;9.59;100.00;98767.69;5034205;28;20032;-56
2023/03/14 07:20:16;;;;;;;9.23;7.88;;;;;;;9.58;100.00;98773.97;5032049;28;20022;-56
2023/03/14 07:22:41;;;;;;;8.32;7.65;;;;;;;9.58;100.00;98785.44;5032656;28;20121;-56
2023/03/14 07:25:09;;;;;;;8.35;7.55;;;;;;;9.46;100.00;98781.25;5032231;28;20116;-56
2023/03/14 07:27:34;;;;;;;10.23;8.55;;;;;;;9.51;100.00;98809.03;5032977;28;20025;-56
2023/03/14 07:29:59;;;;;;;8.63;7.80;;;;;;;9.40;100.00;98845.50;5032600;28;20078;-56
2023/03/14 07:32:25;;;;;;;6.38;5.88;;;;;;;9.17;100.00;98880.22;5031190;28;20103;-56
2023/03/14 07:34:50;;;;;;;6.00;5.60;;;;;;;8.84;100.00;98886.69;5033306;28;20024;-56
2023/03/14 07:37:16;;;;;;;6.40;5.82;;;;;;;8.63;100.00;98902.66;5032578;28;20036;-56
2023/03/14 07:39:41;;;;;;;5.97;5.57;;;;;;;8.50;100.00;98905.53;5033166;28;20037;-56
2023/03/14 07:42:07;;;;;;;4.68;4.30;;;;;;;8.28;100.00;98914.41;5031761;28;20029;-56
2023/03/14 07:44:33;;;;;;;4.85;4.55;;;;;;;8.16;100.00;98934.81;5032832;28;20029;-56
2023/03/14 07:46:58;;;;;;;4.60;4.30;;;;;;;8.00;100.00;98936.22;5033505;28;20396;-56
2023/03/14 07:49:24;;;;;;;5.13;4.75;;;;;;;8.09;100.00;98946.91;5033154;28;20036;-56
2023/03/14 07:51:50;;;;;;;5.30;5.00;;;;;;;8.01;100.00;98959.09;5031750;28;20036;-56
2023/03/14 07:54:15;;;;;;;5.57;5.25;;;;;;;7.99;100.00;98964.50;5032800;28;20056;-57
2023/03/14 07:56:40;;;;;;;5.18;4.82;;;;;;;7.97;100.00;98977.03;5028463;28;20390;-56
2023/03/14 07:59:06;;;;;;;6.43;5.93;;;;;;;7.96;100.00;98983.28;5039875;28;20408;-56
2023/03/14 08:01:32;;;;;;;6.43;5.82;;;;;;;7.92;100.00;98992.47;5031639;28;20083;-56
2023/03/14 08:03:58;;;;;;;6.30;5.85;;;;;;;7.79;100.00;98992.59;5032016;28;20013;-57
2023/03/14 08:06:25;;;;;;;6.65;6.15;;;;;;;7.80;100.00;99002.25;5030350;28;20395;-56
2023/03/14 08:08:51;;;;;;;8.10;6.38;;;;;;;7.74;100.00;99000.09;5034930;28;20522;-56
2023/03/14 08:11:16;;;;;;;6.82;6.32;;;;;;;7.76;100.00;99021.13;5032129;28;20029;-56
2023/03/14 08:13:49;;;;;;;6.90;6.40;;;;;;;7.78;100.00;99016.56;5047430;28;20029;-56
2023/03/14 08:16:15;;;;;;;6.10;5.55;;;;;;;7.76;100.00;99045.78;5037185;28;20029;-56
2023/03/14 08:18:44;;;;;;;5.60;5.22;;;;;;;7.62;100.00;99041.63;5032404;28;20083;-56
2023/03/14 08:21:10;;;;;;;6.05;5.65;;;;;;;7.66;100.00;99048.34;5030013;28;20021;-56
2023/03/14 08:23:35;;;;;;;5.70;5.30;;;;;;;7.70;100.00;99078.03;5031624;28;20025;-56
2023/03/14 08:26:00;;;;;;;5.97;5.47;;;;;;;7.64;100.00;99083.81;5032529;28;20476;-56
2023/03/14 08:28:30;;;;;;;6.00;5.50;;;;;;;7.58;100.00;99084.31;5031218;28;20029;-56
2023/03/14 08:30:57;;;;;;;5.78;5.28;;;;;;;7.58;100.00;99095.72;5031775;28;20480;-56
2023/03/14 08:33:23;;;;;;;7.78;6.05;;;;;;;7.64;100.00;99107.63;5031100;28;20451;-56
2023/03/14 08:35:52;;;;;;;6.18;5.57;;;;;;;7.71;100.00;99114.13;5031414;28;20025;-56
2023/03/14 08:38:17;;;;;;;6.53;5.93;;;;;;;7.65;100.00;99131.34;5033169;28;20647;-56
2023/03/14 08:40:42;;;;;;;9.75;6.30;;;;;;;7.72;100.00;99129.03;5034694;28;20059;-56
2023/03/14 08:43:08;;;;;;;7.50;6.63;;;;;;;7.68;100.00;99140.84;5037381;28;20124;-56
2023/03/14 08:45:33;;;;;;;7.70;6.15;;;;;;;7.63;100.00;99132.41;5034427;28;20034;-56
2023/03/14 08:47:59;;;;;;;6.88;5.70;;;;;;;7.62;100.00;99157.19;5034173;28;20042;-56
2023/03/14 08:50:24;;;;;;;7.90;6.15;;;;;;;7.55;100.00;99164.75;5038754;28;20464;-56
2023/03/14 08:52:50;;;;;;;6.65;5.22;;;;;;;7.56;100.00;99179.69;5039612;28;20032;-56
2023/03/14 08:55:15;;;;;;;8.55;6.03;;;;;;;7.49;100.00;99181.94;5042679;28;20422;-56
2023/03/14 08:57:41;;;;;;;7.55;6.45;;;;;;;7.58;100.00;99188.31;5031897;28;20037;-56
2023/03/14 09:00:10;;;;;;;9.15;6.78;;;;;;;7.62;100.00;99194.25;5029662;28;20057;-57
2023/03/14 09:02:36;;;;;;;9.85;7.50;;;;;;;7.74;100.00;99212.63;5032017;28;20104;-56
2023/03/14 09:05:02;;;;;;;8.18;7.15;;;;;;;7.65;100.00;99212.53;5031837;28;20108;-56
2023/03/14 09:07:27;;;;;;;7.05;6.30;;;;;;;7.65;100.00;99216.00;5032145;28;20465;-56
2023/03/14 09:09:52;;;;;;;8.15;7.32;;;;;;;7.67;100.00;99222.00;5028209;28;20025;-56
2023/03/14 09:12:20;;;;;;;8.32;6.95;;;;;;;7.69;100.00;99235.13;5031992;28;20033;-56
2023/03/14 09:14:46;;;;;;;7.20;6.57;;;;;;;7.72;100.00;99232.25;5029851;28;20041;-56
2023/03/14 09:17:11;;;;;;;7.57;6.13;;;;;;;7.84;100.00;99246.31;5033005;28;20029;-56
2023/03/14 09:19:37;;;;;;;6.95;6.25;;;;;;;7.81;100.00;99249.22;5034932;28;20440;-56
2023/03/14 09:22:03;;;;;;;8.55;6.28;;;;;;;7.90;100.00;99267.84;5031341;28;20033;-56
2023/03/14 09:24:28;;;;;;;6.95;6.35;;;;;;;7.99;100.00;99278.69;5034363;28;20029;-56
2023/03/14 09:26:55;;;;;;;7.50;6.72;;;;;;;7.94;100.00;99277.28;5037172;28;20037;-56
2023/03/14 09:29:21;;;;;;;7.13;6.43;;;;;;;7.79;99.16;99282.88;5031571;28;20043;-56
2023/03/14 09:31:46;;;;;;;7.13;6.38;;;;;;;7.88;100.00;99298.91;5043543;28;20033;-56
2023/03/14 09:34:11;;;;;;;8.73;6.38;;;;;;;7.83;100.00;99302.88;5042821;28;20491;-56
2023/03/14 09:36:38;;;;;;;6.88;5.97;;;;;;;7.78;100.00;99319.09;5040373;28;20053;-57
2023/03/14 09:39:04;;;;;;;5.78;5.38;;;;;;;7.69;100.00;99339.16;5030947;28;20484;-57
2023/03/14 09:41:50;;;;;;;6.22;5.72;;;;;;;7.60;100.00;99355.72;5040872;28;20100;-56
2023/03/14 09:44:30;;;;;;;5.07;4.78;;;;;;;7.43;100.00;99377.31;5032076;28;20036;-56
2023/03/14 09:47:00;;;;;;;6.82;6.22;;;;;;;7.24;98.18;99378.66;5037342;28;20039;-57
2023/03/14 09:49:28;;;;;;;;;;;;;;;7.46;97.45;99403.53;5031355;28;20455;-56
2023/03/14 09:51:57;;;;;;;5.13;4.72;;;;;;;7.04;95.40;99424.19;5036524;28;20274;-56
2023/03/14 09:54:34;;;;;;;5.32;4.93;;;;;;;6.75;96.30;99450.03;5023866;28;20057;-56
2023/03/14 09:56:59;;;;;;;5.13;4.70;;;;;;;6.39;94.24;99448.97;5041115;28;20022;-56
2023/03/14 09:59:28;;;;;;;6.55;5.75;;;;;;;6.29;94.62;99456.66;5032571;28;20557;-56
2023/03/14 10:01:55;;;;;;;5.70;5.25;;;;;;;6.26;94.17;99477.16;5043245;28;20021;-56
2023/03/14 10:04:25;;;;;;;6.35;5.75;;;;;;;6.44;96.03;99483.84;5036578;28;20116;-56
2023/03/14 10:06:53;;;;;;;8.00;6.32;;;;;;;6.54;94.39;99484.06;5027566;28;20408;-56
2023/03/14 10:09:25;;;;;;;5.45;5.07;;;;;;;6.73;94.05;99510.06;5037831;28;20053;-56
2023/03/14 10:11:55;;;;;;;5.95;5.35;;;;;;;6.93;94.94;99519.25;5032615;28;20720;-56
2023/03/14 10:14:43;;;;;;;5.70;5.22;;;;;;;7.13;92.74;99531.09;5042831;28;20155;-57
2023/03/14 10:17:16;;;;;;;6.25;5.70;;;;;;;7.28;92.47;99533.50;5040959;28;20033;-57
2023/03/14 10:19:59;;;;;;;6.47;5.25;;;;;;;7.59;92.32;99562.19;5033970;28;20080;-56
2023/03/14 10:22:29;;;;;;;6.80;5.53;;;;;;;7.33;89.11;99543.75;5031341;28;20029;-56
2023/03/14 10:24:59;;;;;;;5.25;4.80;;;;;;;7.36;88.44;99577.09;5038884;28;20021;-56
2023/03/14 10:27:30;;;;;;;;;;;;;;;7.58;89.89;99586.97;5048442;28;20017;-56
2023/03/14 10:29:58;;;;;;;5.90;5.25;;;;;;;7.33;89.71;99604.59;5039853;28;20276;-56
2023/03/14 10:32:33;;;;;;;8.40;5.78;;;;;;;7.25;88.18;99615.69;5048897;28;20029;-56
2023/03/14 10:35:14;;;;;;;8.20;6.25;;;;;;;7.12;88.73;99604.28;5044177;28;20021;-57
2023/03/14 10:37:59;;;;;;;9.52;6.15;;;;;;;7.39;86.93;99625.31;5039355;28;20071;-56
2023/03/14 10:40:33;;;;;;;8.50;6.03;;;;;;;7.70;88.70;99639.88;5041480;28;20033;-56
2023/03/14 10:43:00;;;;;;;8.57;6.35;;;;;;;7.70;86.99;99649.63;5032985;28;20112;-57
2023/03/14 10:45:39;;;;;;;10.35;5.63;;;;;;;7.61;84.12;99651.09;5042967;28;20062;-57
2023/03/14 10:48:22;;;;;;;12.35;6.70;;;;;;;7.59;84.52;99668.91;5042507;28;20029;-56
2023/03/14 10:51:10;;;;;;;13.07;7.25;;;;;;;7.36;84.34;99677.59;5043082;28;20030;-57
2023/03/14 10:53:47;;;;;;;16.42;6.63;;;;;;;7.43;85.65;99694.72;5030988;28;20066;-56
2023/03/14 10:56:18;;;;;;;15.40;7.93;;;;;;;7.15;88.59;99720.41;5046635;28;20094;-56
2023/03/14 10:58:46;;;;;;;15.32;7.22;;;;;;;6.79;89.39;99721.91;5040355;28;20052;-56
2023/03/14 11:01:32;;;;;;;19.30;7.75;;;;;;;6.60;92.06;99738.09;5033960;28;20025;-56
2023/03/14 11:04:05;;;;;;;12.55;6.28;;;;;;;6.40;93.05;99746.44;5052150;28;20024;-56
2023/03/14 11:06:40;;;;;;;14.38;7.60;;;;;;;6.40;93.73;99748.22;5050872;28;20044;-56
2023/03/14 11:09:15;;;;;;;19.60;7.68;;;;;;;6.36;93.67;99756.34;5037031;28;20032;-56
2023/03/14 11:11:46;;;;;;;17.42;8.38;;;;;;;6.69;94.08;99763.06;5031620;28;20040;-56
2023/03/14 11:14:26;;;;;;;18.30;8.07;;;;;;;6.68;93.24;99771.09;5033875;28;20030;-56
2023/03/14 11:17:00;;;;;;;13.45;7.32;;;;;;;6.68;92.55;99781.69;5035355;28;20038;-57
2023/03/14 11:19:40;;;;;;;15.57;7.00;;;;;;;6.75;93.50;99782.97;5033878;28;20038;-57
2023/03/14 11:22:21;;;;;;;14.43;7.38;;;;;;;6.93;93.50;99794.97;5032812;28;20030;-56
2023/03/14 11:25:03;;;;;;;12.90;7.38;;;;;;;7.09;92.33;99809.84;5032506;28;20099;-56
2023/03/14 11:27:43;;;;;;;15.68;7.53;;;;;;;7.01;90.61;99813.00;5024863;28;20029;-56
2023/03/14 11:30:30;;;;;;;;;;;;;;;7.09;89.85;99815.13;5032507;28;20091;-56
2023/03/14 11:33:14;;;;;;;19.85;7.70;;;;;;;6.92;91.62;99814.44;5032754;28;20008;-56
2023/03/14 11:35:51;;;;;;;18.70;7.80;;;;;;;6.81;92.26;99836.25;5033158;28;20033;-56
2023/03/14 11:38:47;;;;;;;17.08;7.40;;;;;;;6.86;94.42;99856.28;5033332;28;20048;-57